createdAt,value
2022-08-10T00:00:32.182Z,2.78
2022-08-10T00:03:00.543Z,2.80
2022-08-10T00:05:27.898Z,2.67
2022-08-10T00:08:10.811Z,2.97
2022-08-10T00:10:49.436Z,2.78
2022-08-10T00:15:52.868Z,3.17
2022-08-10T00:18:34.563Z,3.10
2022-08-10T00:21:07.171Z,3.58
2022-08-10T00:23:34.949Z,3.22
2022-08-10T00:26:01.931Z,3.20
2022-08-10T00:28:28.810Z,2.97
2022-08-10T00:30:55.728Z,3.42
2022-08-10T00:35:50.178Z,3.65
2022-08-10T00:38:17.302Z,3.17
2022-08-10T00:40:44.062Z,3.17
2022-08-10T00:45:37.519Z,3.47
2022-08-10T00:50:31.210Z,4.10
2022-08-10T00:52:58.491Z,3.58
2022-08-10T00:55:25.859Z,3.42
2022-08-10T00:57:55.153Z,2.97
2022-08-10T01:00:25.562Z,3.15
2022-08-10T01:02:53.160Z,2.88
2022-08-10T01:05:21.665Z,3.35
2022-08-10T01:08:18.947Z,3.22
2022-08-10T01:10:55.615Z,3.33
2022-08-10T01:13:35.185Z,2.92
2022-08-10T01:16:20.746Z,3.58
2022-08-10T01:19:18.396Z,3.78
2022-08-10T01:22:00.135Z,3.80
2022-08-10T01:24:45.375Z,3.38
2022-08-10T01:27:33.599Z,3.75
2022-08-10T01:30:02.216Z,3.90
2022-08-10T01:32:42.046Z,3.47
2022-08-10T01:35:29.703Z,3.88
2022-08-10T01:38:11.859Z,3.85
2022-08-10T01:40:49.977Z,3.15
2022-08-10T01:43:19.396Z,3.42
2022-08-10T01:45:50.390Z,3.42
2022-08-10T01:48:31.946Z,3.65
2022-08-10T01:51:07.296Z,3.60
2022-08-10T01:53:47.083Z,3.42
2022-08-10T01:56:17.035Z,3.58
2022-08-10T01:58:46.259Z,3.80
2022-08-10T02:01:17.483Z,3.70
2022-08-10T02:04:03.829Z,4.20
2022-08-10T02:06:36.942Z,3.40
2022-08-10T02:09:06.417Z,3.42
2022-08-10T02:12:07.887Z,3.72
2022-08-10T02:14:25.683Z,3.30
2022-08-10T02:17:06.404Z,4.18
2022-08-10T02:19:36.578Z,3.30
2022-08-10T02:22:38.134Z,4.00
2022-08-10T02:24:54.248Z,3.53
2022-08-10T02:27:24.242Z,3.65
2022-08-10T02:29:52.659Z,3.38
2022-08-10T02:32:36.497Z,4.18
2022-08-10T02:35:08.648Z,3.53
2022-08-10T02:37:51.233Z,3.67
2022-08-10T02:42:17.961Z,4.28
2022-08-10T02:46:45.442Z,4.18
2022-08-10T02:49:29.091Z,3.55
2022-08-10T02:52:08.647Z,4.18
2022-08-10T02:54:52.378Z,3.30
2022-08-10T02:57:38.479Z,3.58
2022-08-10T03:00:26.958Z,4.00
2022-08-10T03:02:55.774Z,4.20
2022-08-10T03:05:22.633Z,4.05
2022-08-10T03:10:39.946Z,4.38
2022-08-10T03:13:09.274Z,4.35
2022-08-10T03:15:37.761Z,4.32
2022-08-10T03:18:06.291Z,4.07
2022-08-10T03:20:40.214Z,4.15
2022-08-10T03:23:17.499Z,3.80
2022-08-10T03:25:53.599Z,4.25
2022-08-10T03:28:27.403Z,3.58
2022-08-10T03:30:55.780Z,4.63
2022-08-10T03:33:24.245Z,4.70
2022-08-10T03:36:41.641Z,4.18
2022-08-10T03:38:40.766Z,4.13
2022-08-10T03:41:16.330Z,4.18
2022-08-10T03:43:48.797Z,3.88
2022-08-10T03:46:19.496Z,4.03
2022-08-10T03:48:50.142Z,4.53
2022-08-10T03:51:19.525Z,3.75
2022-08-10T03:54:05.350Z,4.25
2022-08-10T03:56:39.798Z,4.50
2022-08-10T03:59:12.150Z,4.30
2022-08-10T04:02:46.490Z,4.53
2022-08-10T04:04:27.371Z,4.22
2022-08-10T04:06:57.002Z,3.83
2022-08-10T04:09:53.246Z,4.47
2022-08-10T04:14:52.462Z,4.25
2022-08-10T04:17:57.081Z,4.45
2022-08-10T04:20:29.900Z,4.05
2022-08-10T04:23:07.744Z,4.03
2022-08-10T04:25:36.360Z,4.35
2022-08-10T04:28:03.614Z,3.90
2022-08-10T04:30:31.947Z,4.00
2022-08-10T04:33:02.126Z,4.18
2022-08-10T04:35:29.926Z,4.10
2022-08-10T04:37:58.035Z,5.05
2022-08-10T04:40:30.238Z,4.30
2022-08-10T04:43:01.207Z,4.30
2022-08-10T04:45:48.794Z,3.70
2022-08-10T04:48:42.780Z,4.07
2022-08-10T04:51:02.159Z,4.10
2022-08-10T04:53:29.220Z,4.55
2022-08-10T04:58:22.741Z,4.50
2022-08-10T05:03:16.595Z,4.03
2022-08-10T05:08:10.077Z,4.07
2022-08-10T05:13:03.545Z,4.38
2022-08-10T05:15:30.295Z,5.13
2022-08-10T05:20:36.444Z,4.20
2022-08-10T05:23:03.198Z,4.65
2022-08-10T05:28:04.377Z,4.63
2022-08-10T05:30:34.082Z,3.90
2022-08-10T05:33:05.069Z,4.28
2022-08-10T05:35:51.780Z,4.68
2022-08-10T05:38:22.758Z,4.75
2022-08-10T05:40:50.301Z,5.00
2022-08-10T05:43:19.364Z,4.35
2022-08-10T05:46:18.430Z,4.40
2022-08-10T05:48:54.561Z,4.57
2022-08-10T05:54:01.480Z,4.65
2022-08-10T05:56:55.441Z,4.38
2022-08-10T06:00:35.541Z,4.30
2022-08-10T06:02:32.807Z,4.25
2022-08-10T06:05:12.175Z,4.60
2022-08-10T06:10:31.516Z,5.22
2022-08-10T06:13:30.996Z,4.65
2022-08-10T06:16:05.385Z,4.47
2022-08-10T06:18:33.263Z,4.78
2022-08-10T06:21:00.863Z,4.13
2022-08-10T06:23:29.893Z,4.57
2022-08-10T06:26:12.027Z,4.00
2022-08-10T06:29:08.038Z,4.93
2022-08-10T06:31:47.014Z,4.93
2022-08-10T06:34:22.549Z,4.32
2022-08-10T06:36:50.315Z,4.57
2022-08-10T06:39:32.822Z,4.80
2022-08-10T06:42:30.913Z,4.13
2022-08-10T06:45:00.921Z,4.43
2022-08-10T06:47:59.750Z,5.65
2022-08-10T06:50:58.150Z,4.10
2022-08-10T06:53:52.112Z,3.80
2022-08-10T06:56:36.745Z,5.10
2022-08-10T06:59:22.096Z,4.68
2022-08-10T07:01:58.392Z,4.00
2022-08-10T07:04:34.104Z,4.45
2022-08-10T07:07:06.560Z,4.45
2022-08-10T07:09:38.980Z,5.18
2022-08-10T07:12:09.167Z,4.30
2022-08-10T07:14:43.431Z,4.60
2022-08-10T07:17:15.407Z,4.60
2022-08-10T07:19:49.634Z,4.25
2022-08-10T07:23:26.939Z,3.80
2022-08-10T07:25:09.263Z,3.90
2022-08-10T07:28:00.859Z,4.00
2022-08-10T07:30:30.107Z,4.18
2022-08-10T07:32:57.832Z,4.28
2022-08-10T07:35:26.448Z,4.57
2022-08-10T07:37:54.743Z,3.50
2022-08-10T07:40:23.631Z,3.80
2022-08-10T07:42:56.276Z,4.07
2022-08-10T07:45:25.741Z,3.90
2022-08-10T07:47:59.809Z,3.15
2022-08-10T07:50:33.009Z,3.67
2022-08-10T07:53:07.071Z,3.63
2022-08-10T07:56:04.253Z,3.78
2022-08-10T07:58:28.758Z,3.83
2022-08-10T08:00:57.495Z,3.50
2022-08-10T08:03:25.549Z,3.85
2022-08-10T08:05:59.415Z,3.60
2022-08-10T08:08:33.020Z,3.20
2022-08-10T08:11:00.641Z,4.25
2022-08-10T08:13:29.230Z,3.40
2022-08-10T08:16:17.290Z,3.28
2022-08-10T08:19:03.792Z,3.20
2022-08-10T08:24:09.124Z,3.10
2022-08-10T08:24:32.479Z,3.80
2022-08-10T08:27:02.604Z,3.45
2022-08-10T08:29:31.473Z,3.70
2022-08-10T08:32:02.373Z,3.22
2022-08-10T08:34:32.453Z,3.33
2022-08-10T08:37:01.144Z,2.22
2022-08-10T08:39:28.821Z,2.83
2022-08-10T08:42:10.946Z,2.72
2022-08-10T08:44:55.642Z,2.83
2022-08-10T08:48:04.609Z,2.58
2022-08-10T08:50:45.504Z,3.25
2022-08-10T08:54:02.092Z,3.40
2022-08-10T08:56:25.025Z,3.35
2022-08-10T08:59:13.774Z,4.05
2022-08-10T09:02:11.618Z,3.08
2022-08-10T09:04:57.377Z,2.92
2022-08-10T09:08:01.494Z,2.30
2022-08-10T09:10:41.626Z,2.90
2022-08-10T09:13:27.075Z,2.30
2022-08-10T09:16:15.815Z,2.28
2022-08-10T09:19:07.658Z,2.33
2022-08-10T09:21:58.560Z,2.35
2022-08-10T09:24:59.015Z,2.45
2022-08-10T09:27:49.177Z,2.17
2022-08-10T09:30:29.094Z,2.33
2022-08-10T09:36:19.621Z,1.80
2022-08-10T09:36:24.059Z,2.60
2022-08-10T09:39:08.093Z,1.95
2022-08-10T09:41:54.317Z,2.55
2022-08-10T09:44:58.294Z,2.40
2022-08-10T09:48:00.837Z,2.03
2022-08-10T09:51:34.469Z,2.17
2022-08-10T09:53:48.834Z,1.67
2022-08-10T09:56:23.271Z,1.60
2022-08-10T09:59:27.243Z,1.55
2022-08-10T10:02:27.530Z,2.17
2022-08-10T10:05:52.991Z,2.03
2022-08-10T10:08:32.409Z,2.45
2022-08-10T10:11:02.132Z,2.13
2022-08-10T10:14:01.441Z,1.85
2022-08-10T10:16:52.426Z,1.92
2022-08-10T10:19:40.683Z,2.05
2022-08-10T10:22:10.618Z,1.65
2022-08-10T10:24:50.804Z,1.98
2022-08-10T10:27:40.578Z,1.90
2022-08-10T10:30:12.098Z,3.42
2022-08-10T10:32:59.451Z,1.92
2022-08-10T10:35:37.663Z,2.03
2022-08-10T10:38:10.508Z,1.67
2022-08-10T10:41:03.083Z,2.00
2022-08-10T10:43:38.691Z,1.85
2022-08-10T10:46:24.157Z,2.28
2022-08-10T10:48:59.648Z,3.33
2022-08-10T10:51:38.009Z,1.58
2022-08-10T10:54:21.922Z,1.63
2022-08-10T10:57:07.223Z,2.00
2022-08-10T10:59:55.591Z,1.77
2022-08-10T11:02:50.951Z,2.03
2022-08-10T11:05:52.702Z,1.95
2022-08-10T11:08:29.244Z,2.08
2022-08-10T11:11:59.765Z,1.70
2022-08-10T11:14:25.178Z,2.55
2022-08-10T11:17:11.424Z,1.38
2022-08-10T11:20:01.887Z,1.77
2022-08-10T11:22:48.123Z,1.60
2022-08-10T11:25:27.751Z,1.83
2022-08-10T11:28:17.955Z,1.83
2022-08-10T11:30:54.899Z,1.42
2022-08-10T11:34:11.435Z,1.90
2022-08-10T11:36:51.664Z,1.55
2022-08-10T11:39:49.726Z,2.05
2022-08-10T11:42:35.803Z,1.83
2022-08-10T11:45:10.205Z,1.35
2022-08-10T11:48:04.526Z,1.70
2022-08-10T11:50:47.851Z,1.80
2022-08-10T11:53:26.853Z,1.52
2022-08-10T11:56:11.095Z,1.63
2022-08-10T11:59:01.672Z,1.80
2022-08-10T12:01:45.615Z,1.73
2022-08-10T12:04:13.720Z,1.83
2022-08-10T12:06:59.050Z,1.40
2022-08-10T12:10:09.932Z,1.73
2022-08-10T12:12:16.388Z,1.50
2022-08-10T12:15:10.853Z,1.63
2022-08-10T12:17:57.710Z,1.90
2022-08-10T12:20:37.407Z,1.92
2022-08-10T12:23:19.501Z,1.40
2022-08-10T12:26:23.549Z,1.42
2022-08-10T12:29:08.762Z,1.60
2022-08-10T12:31:47.918Z,1.60
2022-08-10T12:34:46.341Z,2.00
2022-08-10T12:37:33.258Z,1.80
2022-08-10T12:44:05.362Z,1.33
2022-08-10T12:46:17.883Z,1.48
2022-08-10T12:49:08.494Z,1.73
2022-08-10T12:51:38.020Z,1.60
2022-08-10T12:54:12.399Z,1.48
2022-08-10T12:56:47.256Z,1.60
2022-08-10T12:59:15.544Z,1.73
2022-08-10T13:02:06.903Z,1.67
2022-08-10T13:04:36.176Z,1.50
2022-08-10T13:07:05.406Z,2.00
2022-08-10T13:09:55.475Z,1.30
2022-08-10T13:12:38.645Z,1.88
2022-08-10T13:15:49.183Z,1.42
2022-08-10T13:18:18.200Z,1.63
2022-08-10T13:20:51.574Z,1.60
2022-08-10T13:23:26.751Z,1.50
2022-08-10T13:25:56.782Z,1.50
2022-08-10T13:28:43.347Z,1.13
2022-08-10T13:32:03.232Z,1.20
2022-08-10T13:34:42.675Z,1.98
2022-08-10T13:37:09.437Z,1.35
2022-08-10T13:39:57.819Z,1.45
2022-08-10T13:42:33.789Z,1.30
2022-08-10T13:45:10.963Z,1.50
2022-08-10T13:47:49.551Z,1.30
2022-08-10T13:50:33.396Z,1.27
2022-08-10T13:53:09.991Z,1.30
2022-08-10T13:55:56.545Z,1.25
2022-08-10T13:58:30.559Z,1.40
2022-08-10T14:01:00.874Z,1.67
2022-08-10T14:03:28.916Z,1.40
2022-08-10T14:05:58.446Z,1.40
2022-08-10T14:08:32.334Z,1.27
2022-08-10T14:11:11.182Z,1.10
2022-08-10T14:13:45.471Z,1.00
2022-08-10T14:16:13.800Z,1.50
2022-08-10T14:18:44.672Z,1.48
2022-08-10T14:21:12.525Z,1.15
2022-08-10T14:23:53.122Z,1.23
2022-08-10T14:26:31.467Z,1.13
2022-08-10T14:29:09.184Z,1.45
2022-08-10T14:31:39.026Z,1.20
2022-08-10T14:36:16.846Z,1.13
2022-08-10T14:37:38.045Z,1.38
2022-08-10T14:40:07.165Z,1.02
2022-08-10T14:42:49.030Z,1.00
2022-08-10T14:45:21.158Z,1.23
2022-08-10T14:47:55.919Z,1.10
2022-08-10T14:50:32.520Z,1.10
2022-08-10T14:53:09.412Z,0.90
2022-08-10T14:55:58.699Z,1.27
2022-08-10T14:58:34.094Z,1.20
2022-08-10T15:01:02.607Z,1.10
2022-08-10T15:04:02.302Z,1.55
2022-08-10T15:06:30.800Z,1.23
2022-08-10T15:09:12.676Z,1.63
2022-08-10T15:12:14.861Z,1.30
2022-08-10T15:14:43.118Z,1.30
2022-08-10T15:17:24.010Z,1.05
2022-08-10T15:20:04.523Z,1.25
2022-08-10T15:22:43.808Z,1.15
2022-08-10T15:25:18.599Z,1.30
2022-08-10T15:27:54.348Z,1.43
2022-08-10T15:30:30.246Z,1.08
2022-08-10T15:33:21.252Z,1.30
2022-08-10T15:36:27.989Z,0.90
2022-08-10T15:39:04.636Z,1.25
2022-08-10T15:41:57.546Z,1.10
2022-08-10T15:44:40.050Z,1.92
2022-08-10T15:47:46.185Z,1.42
2022-08-10T15:50:23.334Z,0.90
2022-08-10T15:53:01.041Z,1.10
2022-08-10T15:55:43.452Z,1.20
2022-08-10T15:58:19.223Z,1.60
2022-08-10T16:01:02.853Z,1.10
2022-08-10T16:04:10.720Z,1.10
2022-08-10T16:06:59.328Z,0.95
2022-08-10T16:10:24.789Z,1.02
2022-08-10T16:12:35.256Z,1.20
2022-08-10T16:15:11.043Z,1.20
2022-08-10T16:17:54.485Z,1.00
2022-08-10T16:20:54.940Z,1.00
2022-08-10T16:23:35.851Z,1.20
2022-08-10T16:26:14.713Z,1.38
2022-08-10T16:28:49.742Z,1.20
2022-08-10T16:31:28.797Z,1.35
2022-08-10T16:34:03.329Z,0.95
2022-08-10T16:36:54.031Z,1.30
2022-08-10T16:39:58.169Z,1.27
2022-08-10T16:42:23.746Z,1.15
2022-08-10T16:45:01.190Z,1.30
2022-08-10T16:47:30.738Z,0.90
2022-08-10T16:50:03.405Z,1.27
2022-08-10T16:52:33.233Z,1.40
2022-08-10T16:55:17.085Z,1.48
2022-08-10T16:57:54.299Z,1.05
2022-08-10T17:00:22.880Z,1.08
2022-08-10T17:02:53.583Z,1.67
2022-08-10T17:06:09.770Z,1.33
2022-08-10T17:08:13.652Z,1.20
2022-08-10T17:10:42.562Z,1.10
2022-08-10T17:13:11.988Z,1.23
2022-08-10T17:15:47.597Z,1.70
2022-08-10T17:18:29.329Z,1.30
2022-08-10T17:20:59.784Z,1.35
2022-08-10T17:23:31.521Z,1.77
2022-08-10T17:26:02.854Z,1.50
2022-08-10T17:28:36.174Z,1.65
2022-08-10T17:31:42.902Z,1.27
2022-08-10T17:34:15.026Z,1.88
2022-08-10T17:36:44.675Z,1.80
2022-08-10T17:39:12.895Z,1.90
2022-08-10T17:41:42.386Z,1.92
2022-08-10T17:44:10.138Z,1.63
2022-08-10T17:46:38.969Z,1.80
2022-08-10T17:49:08.350Z,2.15
2022-08-10T17:51:38.160Z,1.80
2022-08-10T17:54:09.247Z,1.83
2022-08-10T17:56:38.045Z,1.95
2022-08-10T17:59:16.884Z,1.58
2022-08-10T18:02:01.496Z,1.50
2022-08-10T18:04:41.395Z,1.48
2022-08-10T18:07:10.621Z,2.50
2022-08-10T18:09:44.763Z,1.42
2022-08-10T18:12:17.681Z,1.70
2022-08-10T18:14:48.162Z,2.53
2022-08-10T18:17:32.645Z,1.80
2022-08-10T18:20:08.577Z,2.45
2022-08-10T18:22:43.001Z,1.75
2022-08-10T18:25:18.115Z,1.63
2022-08-10T18:28:01.673Z,1.50
2022-08-10T18:30:36.639Z,1.75
2022-08-10T18:33:09.089Z,1.30
2022-08-10T18:35:37.236Z,1.73
2022-08-10T18:38:06.608Z,1.52
2022-08-10T18:40:37.091Z,1.92
2022-08-10T18:44:05.853Z,1.33
2022-08-10T18:45:57.231Z,1.38
2022-08-10T18:48:33.886Z,1.50
2022-08-10T18:51:05.580Z,1.63
2022-08-10T18:53:48.022Z,1.45
2022-08-10T18:56:21.342Z,1.83
2022-08-10T18:59:06.307Z,1.50
2022-08-10T19:01:42.353Z,1.77
2022-08-10T19:04:30.651Z,1.45
2022-08-10T19:07:18.605Z,1.05
2022-08-10T19:09:51.830Z,1.67
2022-08-10T19:12:55.819Z,1.35
2022-08-10T19:15:48.221Z,1.38
2022-08-10T19:18:34.175Z,1.20
2022-08-10T19:21:28.658Z,1.73
2022-08-10T19:24:32.123Z,1.50
2022-08-10T19:27:41.050Z,1.50
2022-08-10T19:30:16.153Z,1.77
2022-08-10T19:33:00.920Z,1.08
2022-08-10T19:36:03.735Z,1.02
2022-08-10T19:39:04.246Z,0.95
2022-08-10T19:41:44.415Z,1.30
2022-08-10T19:44:33.390Z,1.35
2022-08-10T19:47:09.446Z,1.75
2022-08-10T19:49:55.200Z,1.98
2022-08-10T19:52:30.679Z,1.48
2022-08-10T19:55:15.669Z,1.58
2022-08-10T19:57:49.428Z,1.50
2022-08-10T20:00:22.743Z,1.50
2022-08-10T20:03:10.622Z,1.35
2022-08-10T20:08:42.658Z,1.58
2022-08-10T20:11:45.110Z,1.88
2022-08-10T20:14:49.745Z,1.38
2022-08-10T20:17:20.660Z,1.58
2022-08-10T20:20:06.682Z,1.95
2022-08-10T20:22:42.612Z,1.85
2022-08-10T20:25:17.794Z,1.75
2022-08-10T20:28:05.336Z,1.40
2022-08-10T20:30:37.646Z,1.80
2022-08-10T20:33:41.246Z,1.50
2022-08-10T20:36:25.544Z,1.85
2022-08-10T20:39:19.327Z,1.67
2022-08-10T20:41:59.616Z,1.80
2022-08-10T20:44:35.509Z,1.73
2022-08-10T20:47:27.412Z,1.92
2022-08-10T20:50:31.793Z,1.50
2022-08-10T20:53:03.004Z,2.17
2022-08-10T20:56:03.579Z,1.98
2022-08-10T20:59:09.280Z,1.80
2022-08-10T21:02:06.445Z,2.60
2022-08-10T21:05:05.496Z,3.75
2022-08-10T21:08:02.915Z,1.88
2022-08-10T21:11:03.729Z,1.45
2022-08-10T21:13:45.561Z,1.50
2022-08-10T21:16:34.113Z,1.95
2022-08-10T21:19:09.745Z,1.75
2022-08-10T21:24:48.131Z,1.88
2022-08-10T21:25:42.037Z,2.13
2022-08-10T21:27:34.177Z,1.60
2022-08-10T21:30:09.139Z,2.05
2022-08-10T21:32:59.309Z,1.88
2022-08-10T21:35:40.379Z,1.88
2022-08-10T21:38:21.871Z,1.83
2022-08-10T21:41:56.443Z,1.73
2022-08-10T21:45:08.129Z,1.75
2022-08-10T21:48:32.089Z,1.63
2022-08-10T21:52:01.612Z,2.20
2022-08-10T21:54:37.447Z,2.17
2022-08-10T21:58:02.107Z,2.17
2022-08-10T22:00:49.434Z,2.08
2022-08-10T22:03:39.664Z,2.53
2022-08-10T22:06:27.936Z,2.42
2022-08-10T22:09:24.631Z,2.17
2022-08-10T22:12:24.946Z,2.47
2022-08-10T22:15:24.160Z,1.98
2022-08-10T22:18:33.345Z,1.67
2022-08-10T22:21:51.620Z,2.67
2022-08-10T22:24:41.499Z,2.22
2022-08-10T22:27:47.026Z,1.97
2022-08-10T22:30:36.001Z,2.15
2022-08-10T22:33:28.061Z,2.40
2022-08-10T22:36:51.852Z,2.25
2022-08-10T22:40:07.380Z,2.10
2022-08-10T22:42:58.385Z,2.42
2022-08-10T22:45:54.864Z,2.53
2022-08-10T22:48:40.576Z,2.38
2022-08-10T22:51:17.089Z,2.08
2022-08-10T22:54:31.184Z,2.27
2022-08-10T22:57:18.914Z,2.45
2022-08-10T22:59:46.952Z,2.60
2022-08-10T23:02:28.111Z,1.85
2022-08-10T23:05:15.828Z,2.10
2022-08-10T23:07:50.149Z,1.85
2022-08-10T23:10:21.514Z,2.28
2022-08-10T23:13:05.358Z,2.00
2022-08-10T23:16:01.620Z,2.20
2022-08-10T23:18:58.382Z,2.05
2022-08-10T23:22:03.433Z,1.70
2022-08-10T23:24:31.547Z,2.10
2022-08-10T23:27:12.626Z,1.92
2022-08-10T23:32:40.614Z,2.42
2022-08-10T23:36:29.454Z,2.50
2022-08-10T23:38:05.810Z,2.00
2022-08-10T23:40:33.321Z,2.58
2022-08-10T23:43:02.426Z,2.40
2022-08-10T23:45:52.577Z,2.13
2022-08-10T23:48:20.380Z,2.63
2022-08-10T23:50:59.325Z,2.25
2022-08-10T23:53:36.130Z,2.30
2022-08-10T23:56:12.943Z,2.70
2022-08-10T23:58:45.187Z,2.53
